<?xml version="1.0" encoding="UTF-8" standalone="no" ?>
<gpx xmlns="http://www.topografix.com/GPX/1/1" xmlns:xsi="http://www.w3.org/2001/XMLSchema-instance" xsi:schemaLocation="http://www.topografix.com/GPX/1/1 http://www.topografix.com/GPX/1/1/gpx.xsd" version="1.1" creator="VisuGPX - https://www.visugpx.com">
  <metadata>
    <name>luzech 6 descentes</name>
    <desc><![CDATA[parcours typé enduro avec de belles descentes]]></desc>
  </metadata>
  <trk>
    <name><![CDATA[2014-04-01-08-18-57]]></name>
    <trkseg>
      <trkpt lat="44.43426" lon="1.30605">
        <ele>290.27</ele>
        <time>2014-04-01T10:24:01Z</time>
      </trkpt>
      <trkpt lat="44.43435" lon="1.30593">
        <ele>290.38</ele>
        <time>2014-04-01T10:24:07Z</time>
      </trkpt>
      <trkpt lat="44.43438" lon="1.30588">
        <ele>290.48</ele>
        <time>2014-04-01T10:24:09Z</time>
      </trkpt>
      <trkpt lat="44.43458" lon="1.30561">
        <ele>291.23</ele>
        <time>2014-04-01T10:24:20Z</time>
      </trkpt>
      <trkpt lat="44.43484" lon="1.30532">
        <ele>290.56</ele>
        <time>2014-04-01T10:24:30Z</time>
      </trkpt>
      <trkpt lat="44.43506" lon="1.30506">
        <ele>290.06</ele>
        <time>2014-04-01T10:24:37Z</time>
      </trkpt>
      <trkpt lat="44.43532" lon="1.30481">
        <ele>289.129</ele>
        <time>2014-04-01T10:24:44Z</time>
      </trkpt>
      <trkpt lat="44.43535" lon="1.30476">
        <ele>289.05</ele>
        <time>2014-04-01T10:24:45Z</time>
      </trkpt>
      <trkpt lat="44.43553" lon="1.30441">
        <ele>287.759</ele>
        <time>2014-04-01T10:24:52Z</time>
      </trkpt>
      <trkpt lat="44.43571" lon="1.30403">
        <ele>285.739</ele>
        <time>2014-04-01T10:24:58Z</time>
      </trkpt>
      <trkpt lat="44.43592" lon="1.30356">
        <ele>285.4</ele>
        <time>2014-04-01T10:25:05Z</time>
      </trkpt>
      <trkpt lat="44.43612" lon="1.30309">
        <ele>285.82</ele>
        <time>2014-04-01T10:25:13Z</time>
      </trkpt>
      <trkpt lat="44.43627" lon="1.30264">
        <ele>287.211</ele>
        <time>2014-04-01T10:25:21Z</time>
      </trkpt>
      <trkpt lat="44.43641" lon="1.30222">
        <ele>288.681</ele>
        <time>2014-04-01T10:25:30Z</time>
      </trkpt>
      <trkpt lat="44.43653" lon="1.30187">
        <ele>289.991</ele>
        <time>2014-04-01T10:25:38Z</time>
      </trkpt>
      <trkpt lat="44.43666" lon="1.30154">
        <ele>290.721</ele>
        <time>2014-04-01T10:25:46Z</time>
      </trkpt>
      <trkpt lat="44.43682" lon="1.30121">
        <ele>291.59</ele>
        <time>2014-04-01T10:25:55Z</time>
      </trkpt>
      <trkpt lat="44.43697" lon="1.30086">
        <ele>291.96</ele>
        <time>2014-04-01T10:26:04Z</time>
      </trkpt>
      <trkpt lat="44.43706" lon="1.30062">
        <ele>291.81</ele>
        <time>2014-04-01T10:26:11Z</time>
      </trkpt>
      <trkpt lat="44.43711" lon="1.30045">
        <ele>291.74</ele>
        <time>2014-04-01T10:26:15Z</time>
      </trkpt>
      <trkpt lat="44.43727" lon="1.30024">
        <ele>291.77</ele>
        <time>2014-04-01T10:26:21Z</time>
      </trkpt>
      <trkpt lat="44.43755" lon="1.29991">
        <ele>291.43</ele>
        <time>2014-04-01T10:26:30Z</time>
      </trkpt>
      <trkpt lat="44.43792" lon="1.29957">
        <ele>291.45</ele>
        <time>2014-04-01T10:26:40Z</time>
      </trkpt>
      <trkpt lat="44.43826" lon="1.29925">
        <ele>293.082</ele>
        <time>2014-04-01T10:26:50Z</time>
      </trkpt>
      <trkpt lat="44.43849" lon="1.29905">
        <ele>294.252</ele>
        <time>2014-04-01T10:26:58Z</time>
      </trkpt>
      <trkpt lat="44.43872" lon="1.29883">
        <ele>295.751</ele>
        <time>2014-04-01T10:27:07Z</time>
      </trkpt>
      <trkpt lat="44.43891" lon="1.29858">
        <ele>296.531</ele>
        <time>2014-04-01T10:27:15Z</time>
      </trkpt>
      <trkpt lat="44.43911" lon="1.29826">
        <ele>296.981</ele>
        <time>2014-04-01T10:27:24Z</time>
      </trkpt>
      <trkpt lat="44.43929" lon="1.29799">
        <ele>296.619</ele>
        <time>2014-04-01T10:27:31Z</time>
      </trkpt>
      <trkpt lat="44.43943" lon="1.29784">
        <ele>295.82</ele>
        <time>2014-04-01T10:27:36Z</time>
      </trkpt>
      <trkpt lat="44.43953" lon="1.2979">
        <ele>294.279</ele>
        <time>2014-04-01T10:27:39Z</time>
      </trkpt>
      <trkpt lat="44.43982" lon="1.29814">
        <ele>293.62</ele>
        <time>2014-04-01T10:27:45Z</time>
      </trkpt>
      <trkpt lat="44.44017" lon="1.29842">
        <ele>292.251</ele>
        <time>2014-04-01T10:27:51Z</time>
      </trkpt>
      <trkpt lat="44.44045" lon="1.29864">
        <ele>291.381</ele>
        <time>2014-04-01T10:27:57Z</time>
      </trkpt>
      <trkpt lat="44.44057" lon="1.29873">
        <ele>290.641</ele>
        <time>2014-04-01T10:28:00Z</time>
      </trkpt>
      <trkpt lat="44.4408" lon="1.29901">
        <ele>288.059</ele>
        <time>2014-04-01T10:28:05Z</time>
      </trkpt>
      <trkpt lat="44.4409" lon="1.29897">
        <ele>287.01</ele>
        <time>2014-04-01T10:28:08Z</time>
      </trkpt>
      <trkpt lat="44.44095" lon="1.29884">
        <ele>286.771</ele>
        <time>2014-04-01T10:28:10Z</time>
      </trkpt>
      <trkpt lat="44.4412" lon="1.29852">
        <ele>283.728</ele>
        <time>2014-04-01T10:28:15Z</time>
      </trkpt>
      <trkpt lat="44.4413" lon="1.29838">
        <ele>282.378</ele>
        <time>2014-04-01T10:28:17Z</time>
      </trkpt>
      <trkpt lat="44.44138" lon="1.29824">
        <ele>280.788</ele>
        <time>2014-04-01T10:28:19Z</time>
      </trkpt>
      <trkpt lat="44.4415" lon="1.29791">
        <ele>278.459</ele>
        <time>2014-04-01T10:28:23Z</time>
      </trkpt>
      <trkpt lat="44.44168" lon="1.29763">
        <ele>274.778</ele>
        <time>2014-04-01T10:28:28Z</time>
      </trkpt>
      <trkpt lat="44.44186" lon="1.29746">
        <ele>271.905</ele>
        <time>2014-04-01T10:28:31Z</time>
      </trkpt>
      <trkpt lat="44.44208" lon="1.29732">
        <ele>267.368</ele>
        <time>2014-04-01T10:28:36Z</time>
      </trkpt>
      <trkpt lat="44.44222" lon="1.29728">
        <ele>263.488</ele>
        <time>2014-04-01T10:28:40Z</time>
      </trkpt>
      <trkpt lat="44.44229" lon="1.29716">
        <ele>261.698</ele>
        <time>2014-04-01T10:28:43Z</time>
      </trkpt>
      <trkpt lat="44.44241" lon="1.29707">
        <ele>257.337</ele>
        <time>2014-04-01T10:28:48Z</time>
      </trkpt>
      <trkpt lat="44.44251" lon="1.29706">
        <ele>253.688</ele>
        <time>2014-04-01T10:28:52Z</time>
      </trkpt>
      <trkpt lat="44.44257" lon="1.29689">
        <ele>249.937</ele>
        <time>2014-04-01T10:28:55Z</time>
      </trkpt>
      <trkpt lat="44.4425" lon="1.29673">
        <ele>246.059</ele>
        <time>2014-04-01T10:29:00Z</time>
      </trkpt>
      <trkpt lat="44.44247" lon="1.29672">
        <ele>246.902</ele>
        <time>2014-04-01T10:29:04Z</time>
      </trkpt>
      <trkpt lat="44.44243" lon="1.29661">
        <ele>246.341</ele>
        <time>2014-04-01T10:29:09Z</time>
      </trkpt>
      <trkpt lat="44.44243" lon="1.29656">
        <ele>245.92</ele>
        <time>2014-04-01T10:29:10Z</time>
      </trkpt>
      <trkpt lat="44.44246" lon="1.29644">
        <ele>245.07</ele>
        <time>2014-04-01T10:29:12Z</time>
      </trkpt>
      <trkpt lat="44.44257" lon="1.29624">
        <ele>238.178</ele>
        <time>2014-04-01T10:29:17Z</time>
      </trkpt>
      <trkpt lat="44.4427" lon="1.29615">
        <ele>233.237</ele>
        <time>2014-04-01T10:29:21Z</time>
      </trkpt>
      <trkpt lat="44.4428" lon="1.29609">
        <ele>228.537</ele>
        <time>2014-04-01T10:29:24Z</time>
      </trkpt>
      <trkpt lat="44.4429" lon="1.29595">
        <ele>222.057</ele>
        <time>2014-04-01T10:29:28Z</time>
      </trkpt>
      <trkpt lat="44.443" lon="1.29592">
        <ele>218.081</ele>
        <time>2014-04-01T10:29:31Z</time>
      </trkpt>
      <trkpt lat="44.44301" lon="1.29587">
        <ele>216.767</ele>
        <time>2014-04-01T10:29:33Z</time>
      </trkpt>
      <trkpt lat="44.44302" lon="1.29562">
        <ele>210.256</ele>
        <time>2014-04-01T10:29:38Z</time>
      </trkpt>
      <trkpt lat="44.4431" lon="1.29554">
        <ele>206.088</ele>
        <time>2014-04-01T10:29:41Z</time>
      </trkpt>
      <trkpt lat="44.44321" lon="1.2955">
        <ele>201.377</ele>
        <time>2014-04-01T10:29:45Z</time>
      </trkpt>
      <trkpt lat="44.44327" lon="1.29534">
        <ele>195.996</ele>
        <time>2014-04-01T10:29:49Z</time>
      </trkpt>
      <trkpt lat="44.44339" lon="1.29528">
        <ele>191.488</ele>
        <time>2014-04-01T10:29:53Z</time>
      </trkpt>
      <trkpt lat="44.44344" lon="1.29521">
        <ele>188.008</ele>
        <time>2014-04-01T10:29:56Z</time>
      </trkpt>
      <trkpt lat="44.44346" lon="1.29504">
        <ele>184.386</ele>
        <time>2014-04-01T10:29:59Z</time>
      </trkpt>
      <trkpt lat="44.44344" lon="1.29478">
        <ele>179.077</ele>
        <time>2014-04-01T10:30:04Z</time>
      </trkpt>
      <trkpt lat="44.44352" lon="1.29475">
        <ele>177.359</ele>
        <time>2014-04-01T10:30:07Z</time>
      </trkpt>
      <trkpt lat="44.44357" lon="1.29467">
        <ele>174.998</ele>
        <time>2014-04-01T10:30:10Z</time>
      </trkpt>
      <trkpt lat="44.4436" lon="1.29457">
        <ele>172.088</ele>
        <time>2014-04-01T10:30:13Z</time>
      </trkpt>
      <trkpt lat="44.44373" lon="1.29447">
        <ele>167.137</ele>
        <time>2014-04-01T10:30:18Z</time>
      </trkpt>
      <trkpt lat="44.44379" lon="1.29436">
        <ele>162.967</ele>
        <time>2014-04-01T10:30:22Z</time>
      </trkpt>
      <trkpt lat="44.44384" lon="1.29433">
        <ele>159.649</ele>
        <time>2014-04-01T10:30:26Z</time>
      </trkpt>
      <trkpt lat="44.44387" lon="1.29428">
        <ele>157.198</ele>
        <time>2014-04-01T10:30:29Z</time>
      </trkpt>
      <trkpt lat="44.44398" lon="1.29411">
        <ele>151.197</ele>
        <time>2014-04-01T10:30:34Z</time>
      </trkpt>
      <trkpt lat="44.44401" lon="1.29401">
        <ele>147.657</ele>
        <time>2014-04-01T10:30:37Z</time>
      </trkpt>
      <trkpt lat="44.4441" lon="1.29391">
        <ele>142.617</ele>
        <time>2014-04-01T10:30:41Z</time>
      </trkpt>
      <trkpt lat="44.44412" lon="1.29382">
        <ele>139.767</ele>
        <time>2014-04-01T10:30:43Z</time>
      </trkpt>
      <trkpt lat="44.44415" lon="1.29373">
        <ele>137.476</ele>
        <time>2014-04-01T10:30:45Z</time>
      </trkpt>
      <trkpt lat="44.44419" lon="1.2935">
        <ele>132.587</ele>
        <time>2014-04-01T10:30:50Z</time>
      </trkpt>
      <trkpt lat="44.44428" lon="1.2935">
        <ele>131.478</ele>
        <time>2014-04-01T10:30:52Z</time>
      </trkpt>
      <trkpt lat="44.4444" lon="1.29349">
        <ele>130.5</ele>
        <time>2014-04-01T10:30:55Z</time>
      </trkpt>
      <trkpt lat="44.44444" lon="1.29347">
        <ele>130.611</ele>
        <time>2014-04-01T10:30:57Z</time>
      </trkpt>
      <trkpt lat="44.44456" lon="1.29346">
        <ele>129.801</ele>
        <time>2014-04-01T10:31:01Z</time>
      </trkpt>
      <trkpt lat="44.44473" lon="1.29339">
        <ele>129.691</ele>
        <time>2014-04-01T10:31:05Z</time>
      </trkpt>
      <trkpt lat="44.44491" lon="1.29339">
        <ele>129.482</ele>
        <time>2014-04-01T10:31:09Z</time>
      </trkpt>
      <trkpt lat="44.44498" lon="1.29353">
        <ele>129.542</ele>
        <time>2014-04-01T10:31:12Z</time>
      </trkpt>
      <trkpt lat="44.445" lon="1.29359">
        <ele>129.462</ele>
        <time>2014-04-01T10:31:13Z</time>
      </trkpt>
      <trkpt lat="44.44515" lon="1.29407">
        <ele>128.752</ele>
        <time>2014-04-01T10:31:21Z</time>
      </trkpt>
      <trkpt lat="44.44517" lon="1.29413">
        <ele>128.692</ele>
        <time>2014-04-01T10:31:22Z</time>
      </trkpt>
      <trkpt lat="44.44519" lon="1.29427">
        <ele>128.752</ele>
        <time>2014-04-01T10:31:24Z</time>
      </trkpt>
      <trkpt lat="44.4452" lon="1.29454">
        <ele>128.192</ele>
        <time>2014-04-01T10:31:28Z</time>
      </trkpt>
      <trkpt lat="44.44516" lon="1.29487">
        <ele>128.332</ele>
        <time>2014-04-01T10:31:33Z</time>
      </trkpt>
      <trkpt lat="44.44516" lon="1.29514">
        <ele>127.942</ele>
        <time>2014-04-01T10:31:37Z</time>
      </trkpt>
      <trkpt lat="44.44528" lon="1.29564">
        <ele>128.072</ele>
        <time>2014-04-01T10:31:45Z</time>
      </trkpt>
      <trkpt lat="44.44547" lon="1.29601">
        <ele>128.233</ele>
        <time>2014-04-01T10:31:52Z</time>
      </trkpt>
      <trkpt lat="44.44578" lon="1.29649">
        <ele>129.294</ele>
        <time>2014-04-01T10:32:02Z</time>
      </trkpt>
      <trkpt lat="44.44605" lon="1.29681">
        <ele>129.223</ele>
        <time>2014-04-01T10:32:10Z</time>
      </trkpt>
      <trkpt lat="44.44634" lon="1.29707">
        <ele>128.292</ele>
        <time>2014-04-01T10:32:17Z</time>
      </trkpt>
      <trkpt lat="44.44671" lon="1.29739">
        <ele>127.212</ele>
        <time>2014-04-01T10:32:26Z</time>
      </trkpt>
      <trkpt lat="44.44703" lon="1.29768">
        <ele>126.873</ele>
        <time>2014-04-01T10:32:34Z</time>
      </trkpt>
      <trkpt lat="44.4473" lon="1.29792">
        <ele>126.473</ele>
        <time>2014-04-01T10:32:41Z</time>
      </trkpt>
      <trkpt lat="44.4474" lon="1.29799">
        <ele>127.093</ele>
        <time>2014-04-01T10:32:44Z</time>
      </trkpt>
      <trkpt lat="44.44741" lon="1.29813">
        <ele>126.623</ele>
        <time>2014-04-01T10:32:48Z</time>
      </trkpt>
      <trkpt lat="44.44738" lon="1.29817">
        <ele>126.573</ele>
        <time>2014-04-01T10:32:49Z</time>
      </trkpt>
      <trkpt lat="44.44732" lon="1.29825">
        <ele>126.513</ele>
        <time>2014-04-01T10:32:51Z</time>
      </trkpt>
      <trkpt lat="44.44721" lon="1.29851">
        <ele>125.665</ele>
        <time>2014-04-01T10:32:56Z</time>
      </trkpt>
      <trkpt lat="44.44713" lon="1.29868">
        <ele>125.264</ele>
        <time>2014-04-01T10:33:02Z</time>
      </trkpt>
      <trkpt lat="44.44708" lon="1.29874">
        <ele>124.914</ele>
        <time>2014-04-01T10:33:07Z</time>
      </trkpt>
    </trkseg>
  </trk>
</gpx>